METAR Data
IDs: Format: Raw Decoded Include TAF

Data at: 0601 UTC 24 Sep 2018

KSAR 240601Z AUTO 12006KT 7SM OVC010 19/19 A3002 RMK AO2
KSAR 240541Z AUTO 11006KT 5SM BR OVC012 19/19 A3002 RMK AO2
KSAR 240522Z AUTO 10005KT 10SM BKN012 OVC034 19/19 A3002 RMK AO2
KSAR 240441Z AUTO 10004KT 10SM BKN036 OVC060 19/19 A3002 RMK AO2
KSAR 240421Z AUTO 11004KT 10SM BKN040 OVC060 19/19 A3003 RMK AO2
KSAR 240401Z AUTO 11005KT 10SM SCT044 OVC060 20/20 A3003 RMK AO2
KSAR 240341Z AUTO 11005KT 10SM OVC060 20/20 A3003 RMK AO2
KSAR 240322Z AUTO 11005KT 10SM OVC060 20/20 A3003 RMK AO2
KSAR 240302Z AUTO 10003KT 10SM OVC060 20/20 A3003 RMK AO2
KSAR 240241Z AUTO 12004KT 10SM OVC060 20/20 A3004 RMK AO2
KSAR 240222Z AUTO 12004KT 10SM SCT060 OVC070 21/20 A3003 RMK AO2
KSAR 240202Z AUTO 12004KT 10SM OVC060 21/20 A3003 RMK AO2
KSAR 240141Z AUTO 12004KT 10SM SCT060 BKN070 20/20 A3003 RMK AO2
KSAR 240101Z AUTO 09003KT 10SM SCT037 BKN070 21/20 A3001 RMK AO2
KSAR 240042Z AUTO 09003KT 10SM OVC037 21/20 A3001 RMK AO2
KSAR 240021Z AUTO 09005KT 7SM OVC039 22/19 A3001 RMK AO2
KSAR 240001Z AUTO 10005KT 7SM OVC039 22/19 A3001 RMK AO2
KSAR 232343Z AUTO 10004KT 10SM BKN041 OVC050 22/20 A3001 RMK AO2
KSAR 232301Z AUTO 09006KT 7SM OVC050 24/19 A3001 RMK AO2
KSAR 232221Z AUTO 10006KT 10SM OVC050 24/19 A3001 RMK AO2
KSAR 232202Z AUTO 09005KT 10SM SCT037 OVC050 24/19 A3001 RMK AO2
KSAR 232141Z AUTO 08005KT 3SM HZ BKN037 OVC050 24/19 A3001 RMK AO2
KSAR 232121Z AUTO 10005KT 10SM SCT037 OVC050 24/19 A3001 RMK AO2
KSAR 232101Z AUTO 09005KT 7SM OVC050 24/19 A3001 RMK AO2
KSAR 232041Z AUTO 08006KT 10SM OVC050 24/18 A3002 RMK AO2
KSAR 232021Z AUTO 07005KT 10SM SCT036 OVC050 24/19 A3002 RMK AO2
KSAR 232002Z AUTO 08009KT 10SM BKN036 OVC050 24/19 A3003 RMK AO2
KSAR 231941Z AUTO 10005KT 10SM BKN034 OVC050 24/19 A3004 RMK AO2
KSAR 231921Z AUTO 06009KT 5SM BKN032 OVC050 24/19 A3004 RMK AO2
KSAR 231901Z AUTO 07008KT 10SM SCT032 OVC050 24/19 A3005 RMK AO2
KSAR 231841Z AUTO 06007KT 10SM OVC050 24/18 A3006 RMK AO2
KSAR 231823Z AUTO 05007KT 5SM HZ OVC050 23/18 A3008 RMK AO2
KSAR 231801Z AUTO 04007KT 10SM OVC050 23/18 A3008 RMK AO2
KSAR 231741Z AUTO 08009KT 10SM OVC050 23/19 A3009 RMK AO2
KSAR 231723Z AUTO 04007KT 10SM OVC050 22/18 A3009 RMK AO2
KSAR 231643Z AUTO 06007KT 10SM OVC050 21/18 A3011 RMK AO2
KSAR 231621Z AUTO 05007KT 10SM OVC050 21/17 A3011 RMK AO2
KSAR 231601Z AUTO 07005KT 10SM SCT016 OVC050 20/18 A3011 RMK AO2
KSAR 231541Z AUTO 04004KT 10SM SCT014 OVC050 19/18 A3011 RMK AO2
KSAR 231521Z AUTO 06005KT 10SM OVC050 18/17 A3012 RMK AO2
KSAR 231501Z AUTO 07006KT 10SM SCT011 OVC050 18/17 A3011 RMK AO2
KSAR 231441Z AUTO 06004KT 10SM SCT015 SCT021 OVC050 17/17 A3012 RMK AO2
KSAR 231421Z AUTO 03005KT 10SM BKN015 BKN021 OVC050 17/16 A3012 RMK AO2
KSAR 231401Z AUTO 03003KT 10SM BKN015 OVC050 16/16 A3012 RMK AO2
KSAR 231341Z AUTO 03004KT 10SM OVC015 16/16 A3011 RMK AO2
KSAR 231321Z AUTO 03003KT 10SM BKN015 OVC050 16/16 A3011 RMK AO2
KSAR 231301Z AUTO 02003KT 10SM SCT013 BKN021 OVC050 15/15 A3011 RMK AO2
KSAR 231241Z AUTO 36003KT 10SM SCT013 OVC019 15/15 A3011 RMK AO2
KSAR 231221Z AUTO 00000KT 10SM OVC019 15/15 A3011 RMK AO2
KSAR 231201Z AUTO 00000KT 10SM OVC017 15/15 A3011 RMK AO2
KSAR 231141Z AUTO 00000KT 10SM OVC019 15/15 A3010 RMK AO2
KSAR 231122Z AUTO 00000KT 10SM BKN020 OVC050 15/15 A3009 RMK AO2
KSAR 231101Z AUTO 00000KT 10SM SCT018 OVC050 15/15 A3008 RMK AO2
KSAR 231041Z AUTO 03003KT 10SM SCT028 OVC050 14/14 A3008 RMK AO2
KSAR 231021Z AUTO 01004KT 10SM BKN028 OVC048 15/15 A3009 RMK AO2
KSAR 230941Z AUTO 02003KT 10SM OVC017 14/14 A3009 RMK AO2
KSAR 230921Z AUTO 02003KT 10SM SCT019 OVC030 14/14 A3009 RMK AO2
KSAR 230903Z AUTO 00000KT 10SM BKN032 OVC049 15/15 A3009 RMK AO2
KSAR 230841Z AUTO 00000KT 10SM SCT030 OVC049 15/15 A3009 RMK AO2
KSAR 230821Z AUTO 00000KT 10SM OVC047 15/15 A3009 RMK AO2
KSAR 230741Z AUTO 00000KT 10SM OVC049 15/15 A3009 RMK AO2
KSAR 230722Z AUTO 00000KT 10SM OVC049 15/15 A3010 RMK AO2
KSAR 230701Z AUTO 00000KT 10SM SCT037 OVC047 15/15 A3011 RMK AO2
KSAR 230641Z AUTO 00000KT 10SM SCT026 SCT037 OVC045 15/15 A3011 RMK AO2
KSAR 230621Z AUTO 00000KT 10SM OVC045 15/15 A3011 RMK AO2
KSAR 230601Z AUTO 05003KT 10SM OVC045 15/15 A3011 RMK AO2
KSAR 230541Z AUTO 05003KT 10SM OVC045 15/15 A3011 RMK AO2
KSAR 230521Z AUTO 06004KT 10SM OVC045 15/15 A3012 RMK AO2
KSAR 230501Z AUTO 06003KT 10SM OVC045 15/15 A3013 RMK AO2
KSAR 230441Z AUTO 05005KT 10SM OVC047 15/15 A3013 RMK AO2
KSAR 230422Z AUTO 07004KT 10SM BKN047 14/14 A3013 RMK AO2
KSAR 230402Z AUTO 00000KT 10SM CLR 14/14 A3015 RMK AO2
KSAR 230342Z AUTO 09005KT 10SM SCT036 15/15 A3015 RMK AO2
KSAR 230322Z AUTO 09005KT 10SM OVC036 15/15 A3015 RMK AO2
KSAR 230301Z AUTO 08004KT 10SM OVC036 15/15 A3014 RMK AO2
KSAR 230241Z AUTO 07003KT 10SM OVC038 15/15 A3016 RMK AO2
KSAR 230221Z AUTO 10003KT 10SM OVC038 15/15 A3016 RMK AO2
KSAR 230201Z AUTO 09003KT 10SM OVC038 15/15 A3017 RMK AO2
KSAR 230143Z AUTO 08003KT 10SM OVC040 15/15 A3016 RMK AO2
KSAR 230123Z AUTO 00000KT 10SM BKN040 15/15 A3017 RMK AO2
KSAR 230103Z AUTO 11003KT 10SM CLR 14/14 A3016 RMK AO2
KSAR 230041Z AUTO 09004KT 10SM CLR 14/14 A3015 RMK AO2
KSAR 230021Z AUTO 00000KT 10SM CLR 15/15 A3016 RMK AO2
KSAR 230001Z AUTO 00000KT 10SM CLR 15/15 A3016 RMK AO2
KSAR 222341Z AUTO 07003KT 10SM CLR 16/16 A3016 RMK AO2
KSAR 222323Z AUTO 05003KT 10SM SCT015 17/16 A3016 RMK AO2
KSAR 222301Z AUTO 05004KT 10SM SCT015 17/16 A3015 RMK AO2
KSAR 222221Z AUTO 04006KT 10SM OVC013 17/16 A3016 RMK AO2
KSAR 222201Z AUTO 03006KT 10SM OVC011 16/16 A3016 RMK AO2
KSAR 222143Z AUTO 03006KT 10SM OVC011 17/16 A3016 RMK AO2
KSAR 222121Z AUTO 04006KT 10SM OVC011 16/16 A3017 RMK AO2
KSAR 222101Z AUTO 04006KT 10SM OVC011 16/16 A3017 RMK AO2
KSAR 222043Z AUTO 05007KT 10SM OVC011 16/16 A3018 RMK AO2
KSAR 222002Z AUTO 04005KT 10SM -DZ OVC009 16/16 A3019 RMK AO2
KSAR 221941Z AUTO 03007KT 10SM -DZ BKN007 OVC011 16/16 A3019 RMK AO2 P0002
KSAR 221921Z AUTO 04007KT 10SM -DZ SCT009 BKN022 OVC065 15/15 A3019 RMK AO2 P0001
KSAR 221901Z AUTO 04007KT 10SM -RA BKN011 BKN036 OVC090 15/15 A3019 RMK AO2 P0001
KSAR 221841Z AUTO 02004KT 10SM -RA SCT011 BKN075 OVC090 15/15 A3022 RMK AO2 P0001
KSAR 221821Z AUTO 08006KT 10SM -RA SCT011 BKN070 OVC080 15/15 A3021 RMK AO2